Time;durP1;ratioP1;P1;durP2;ratioP2;P2;SDS_P1;SDS_P2;PMS_P1;PMS_P2;Temp;Humidity;BMP_temperature;BMP_pressure;BME280_temperature;BME280_humidity;BME280_pressure;Samples;Min_cycle;Max_cycle;Signal;HPM_P1;HPM_P2
2023/02/12 00:01:46;;;;;;;;;;;;;;;6.54;100.00;-18204.22;4981677;28;19918;-84
2023/02/12 00:04:11;;;;;;;;;;;;;;;6.54;100.00;-18204.22;4986361;28;19926;-84
2023/02/12 00:06:37;;;;;;;;;;;;;;;6.54;100.00;-18204.22;4968463;28;19984;-82
2023/02/12 00:09:02;;;;;;;;;;;;;;;6.54;100.00;-18204.09;4986776;28;20005;-83
2023/02/12 00:11:28;;;;;;;;;;;;;;;6.54;100.00;-18204.22;4977866;28;20394;-84
2023/02/12 00:13:54;;;;;;;;;;;;;;;6.52;100.00;-18203.69;4986841;28;19930;-84
2023/02/12 00:16:21;;;;;;;;;;;;;;;6.56;100.00;-18204.66;4983409;28;19929;-84
2023/02/12 00:18:47;;;;;;;;;;;;;;;6.55;100.00;-18204.50;4979121;28;20433;-84
2023/02/12 00:21:16;;;;;;;;;;;;;;;6.54;100.00;-18204.22;4966873;28;19918;-85
2023/02/12 00:23:41;;;;;;;;;;;;;;;6.54;100.00;-18204.22;4985141;28;19933;-85
2023/02/12 00:26:07;;;;;;;;;;;;;;;6.53;100.00;-18203.97;4968910;28;19921;-84
2023/02/12 00:28:33;;;;;;;;;;;;;;;6.51;100.00;-18203.41;4986713;28;20000;-85
2023/02/12 00:31:02;;;;;;;;;;;;;;;6.52;100.00;-18203.69;4971271;28;19917;-85
2023/02/12 00:33:28;;;;;;;;;;;;;;;6.51;100.00;-18203.41;4987272;28;19929;-84
2023/02/12 00:35:54;;;;;;;;;;;;;;;6.50;100.00;-18203.13;4999669;28;19933;-86
2023/02/12 00:38:20;;;;;;;;;;;;;;;6.51;100.00;-18203.28;4989166;28;19949;-85
2023/02/12 00:40:45;;;;;;;;;;;;;;;6.49;100.00;-18202.84;4986466;28;19961;-84
2023/02/12 00:43:10;;;;;;;;;;;;;;;6.50;100.00;-18203.13;4988139;28;19926;-83
2023/02/12 00:45:36;;;;;;;;;;;;;;;6.49;100.00;-18202.72;4982303;28;20378;-83
2023/02/12 00:48:02;;;;;;;;;;;;;;;6.48;100.00;-18202.59;4988080;28;19945;-86
2023/02/12 00:50:27;;;;;;;;;;;;;;;6.48;100.00;-18202.44;4982341;28;19972;-84
2023/02/12 00:52:53;;;;;;;;;;;;;;;6.47;100.00;-18202.31;4986628;28;19971;-84
2023/02/12 00:55:18;;;;;;;;;;;;;;;6.47;100.00;-18202.31;4986879;28;19928;-84
2023/02/12 00:57:43;;;;;;;;;;;;;;;6.46;100.00;-18201.88;4981734;28;20053;-85
2023/02/12 01:00:09;;;;;;;;;;;;;;;6.45;100.00;-18201.63;4987982;28;19922;-83
2023/02/12 01:02:34;;;;;;;;;;;;;;;6.43;100.00;-18201.19;4983742;28;19956;-83
2023/02/12 01:04:59;;;;;;;;;;;;;;;6.41;100.00;-18200.66;5000900;28;19953;-85
2023/02/12 01:07:24;;;;;;;;;;;;;;;6.42;100.00;-18200.94;4990325;28;20307;-84
2023/02/12 01:09:50;;;;;;;;;;;;;;;6.43;100.00;-18201.06;4988071;28;19922;-84
2023/02/12 01:12:15;;;;;;;;;;;;;;;6.41;100.00;-18200.66;4987398;28;19917;-84
2023/02/12 01:14:40;;;;;;;;;;;;;;;6.41;100.00;-18200.66;5002390;28;19929;-85
2023/02/12 01:17:06;;;;;;;;;;;;;;;6.42;100.00;-18200.94;5000199;28;20005;-87
2023/02/12 01:19:32;;;;;;;;;;;;;;;6.43;100.00;-18201.06;4963723;28;20505;-85
2023/02/12 01:21:57;;;;;;;;;;;;;;;6.41;100.00;-18200.66;4988586;28;19921;-85
2023/02/12 01:24:22;;;;;;;;;;;;;;;6.41;100.00;-18200.66;4990414;28;19918;-84
2023/02/12 01:26:48;;;;;;;;;;;;;;;6.40;100.00;-18200.38;4989085;28;19929;-85
2023/02/12 01:29:13;;;;;;;;;;;;;;;6.39;100.00;-18200.09;4982199;28;19945;-84
2023/02/12 01:31:38;;;;;;;;;;;;;;;6.39;100.00;-18200.09;4991420;28;19918;-86
2023/02/12 01:34:04;;;;;;;;;;;;;;;6.38;100.00;-18199.81;4989616;28;20001;-86
2023/02/12 01:36:30;;;;;;;;;;;;;;;6.38;100.00;-18199.81;4988188;28;19976;-84
2023/02/12 01:38:56;;;;;;;;;;;;;;;6.37;100.00;-18199.53;4987356;28;19918;-84
2023/02/12 01:41:26;;;;;;;;;;;;;;;6.37;100.00;-18199.53;4989773;28;19922;-84
2023/02/12 01:44:26;;;;;;;;;;;;;;;6.36;100.00;-18199.28;4989337;28;19926;-84
2023/02/12 01:46:56;;;;;;;;;;;;;;;6.33;100.00;-18198.59;4967141;28;20347;-84
2023/02/12 01:49:21;;;;;;;;;;;;;;;6.34;100.00;-18198.72;4982165;28;20319;-85
2023/02/12 01:51:49;;;;;;;;;;;;;;;6.30;100.00;-18197.75;4978364;28;19922;-85
2023/02/12 01:54:16;;;;;;;;;;;;;;;6.29;100.00;-18197.47;4989538;28;19921;-84
2023/02/12 01:56:42;;;;;;;;;;;;;;;6.30;100.00;-18197.63;4988346;28;20025;-84
2023/02/12 01:59:07;;;;;;;;;;;;;;;6.28;100.00;-18197.06;4989195;28;20004;-85
2023/02/12 02:01:33;;;;;;;;;;;;;;;6.27;100.00;-18196.78;4984176;28;20375;-83
2023/02/12 02:04:04;;;;;;;;;;;;;;;6.27;100.00;-18196.78;4977168;28;19929;-85
2023/02/12 02:06:38;;;;;;;;;;;;;;;6.27;100.00;-18196.94;4985750;28;20462;-87
2023/02/12 02:09:04;;;;;;;;;;;;;;;6.29;100.00;-18197.34;4971409;28;20315;-86
2023/02/12 02:14:31;;;;;;;;;;;;;;;6.24;100.00;-18196.09;4999023;28;19929;-87
2023/02/12 02:17:08;;;;;;;;;;;;;;;6.20;100.00;-18195.00;5001614;28;19976;-84
2023/02/12 02:19:52;;;;;;;;;;;;;;;6.18;100.00;-18194.44;4989766;28;19945;-85
2023/02/12 02:22:25;;;;;;;;;;;;;;;6.17;100.00;-18194.03;4958997;28;20303;-85
2023/02/12 02:24:50;;;;;;;;;;;;;;;6.17;100.00;-18194.03;4983247;28;19922;-85
2023/02/12 02:27:15;;;;;;;;;;;;;;;6.16;100.00;-18193.91;4989497;28;19924;-85
2023/02/12 02:29:44;;;;;;;;;;;;;;;6.17;100.00;-18194.03;4987798;28;19924;-85
2023/02/12 02:32:41;;;;;;;;;;;;;;;6.16;100.00;-18193.91;4988959;28;20001;-86
2023/02/12 02:35:12;;;;;;;;;;;;;;;6.15;100.00;-18193.47;4964352;28;19964;-86
2023/02/12 02:37:50;;;;;;;;;;;;;;;6.14;100.00;-18193.19;4983844;28;19918;-86
2023/02/12 02:40:22;;;;;;;;;;;;;;;6.14;100.00;-18193.19;4971498;28;20359;-86
2023/02/12 02:42:59;;;;;;;;;;;;;;;6.06;100.00;-18191.28;4989207;28;20009;-86
2023/02/12 02:45:32;;;;;;;;;;;;;;;6.07;100.00;-18191.56;4982885;28;19925;-86
2023/02/12 02:48:02;;;;;;;;;;;;;;;6.05;100.00;-18190.84;5001712;28;19980;-87
2023/02/12 02:50:29;;;;;;;;;;;;;;;6.06;100.00;-18191.28;4988476;28;19926;-86
2023/02/12 02:53:03;;;;;;;;;;;;;;;6.10;100.00;-18192.38;4989140;28;19918;-86
2023/02/12 02:55:32;;;;;;;;;;;;;;;6.05;100.00;-18191.00;4990669;28;19918;-86
2023/02/12 02:58:04;;;;;;;;;;;;;;;6.04;100.00;-18190.59;4972510;28;20698;-86
2023/02/12 03:00:40;;;;;;;;;;;;;;;6.02;100.00;-18190.16;4988275;28;19957;-86
2023/02/12 03:03:15;;;;;;;;;;;;;;;6.01;100.00;-18189.91;5003782;28;20457;-86
2023/02/12 03:05:46;;;;;;;;;;;;;;;6.01;100.00;-18189.91;4989542;28;19922;-84
2023/02/12 03:08:22;;;;;;;;;;;;;;;6.01;100.00;-18189.91;4974258;28;19921;-86
2023/02/12 03:10:51;;;;;;;;;;;;;;;6.01;100.00;-18189.91;4990568;28;19926;-85
2023/02/12 03:13:29;;;;;;;;;;;;;;;6.00;100.00;-18189.47;4989603;28;19917;-85
2023/02/12 03:16:27;;;;;;;;;;;;;;;6.00;100.00;-18189.47;5004767;28;19929;-86
2023/02/12 03:19:05;;;;;;;;;;;;;;;6.00;100.00;-18189.47;4968473;28;19922;-86
2023/02/12 03:21:45;;;;;;;;;;;;;;;5.97;100.00;-18188.78;4985482;28;20074;-85
2023/02/12 03:24:15;;;;;;;;;;;;;;;5.98;100.00;-18189.06;4973442;28;19922;-85
2023/02/12 03:26:47;;;;;;;;;;;;;;;5.97;100.00;-18188.78;4968147;28;19925;-86
2023/02/12 03:29:13;;;;;;;;;;;;;;;5.98;100.00;-18189.06;4989704;28;19917;-85
2023/02/12 03:32:01;;;;;;;;;;;;;;;5.96;100.00;-18188.38;4989367;28;20375;-85
2023/02/12 03:34:32;;;;;;;;;;;;;;;5.96;100.00;-18188.50;4967301;28;19964;-86
2023/02/12 03:37:01;;;;;;;;;;;;;;;5.95;100.00;-18188.22;4989273;28;19918;-87
2023/02/12 03:39:44;;;;;;;;;;;;;;;5.94;100.00;-18187.97;4990623;28;19918;-87
2023/02/12 03:42:09;;;;;;;;;;;;;;;5.94;100.00;-18187.81;4987696;28;19922;-86
2023/02/12 03:44:50;;;;;;;;;;;;;;;5.94;100.00;-18187.97;4980005;28;19918;-86
2023/02/12 03:47:19;;;;;;;;;;;;;;;5.92;100.00;-18187.25;4988311;28;19918;-85
2023/02/12 03:49:50;;;;;;;;;;;;;;;5.91;100.00;-18187.13;4987002;28;20403;-87
2023/02/12 03:52:15;;;;;;;;;;;;;;;5.93;100.00;-18187.53;4991244;28;20461;-86
2023/02/12 03:54:41;;;;;;;;;;;;;;;5.91;100.00;-18187.13;4966911;28;19918;-86
2023/02/12 03:57:09;;;;;;;;;;;;;;;5.93;100.00;-18187.53;4990832;28;20391;-86
2023/02/12 03:59:36;;;;;;;;;;;;;;;5.92;100.00;-18187.25;4993315;28;19964;-84
2023/02/12 04:02:01;;;;;;;;;;;;;;;5.91;100.00;-18187.13;4979809;28;19918;-85
2023/02/12 04:04:27;;;;;;;;;;;;;;;5.89;100.00;-18186.72;5000435;28;19922;-85
2023/02/12 04:06:52;;;;;;;;;;;;;;;5.87;100.00;-18186.03;4987235;28;19918;-84
2023/02/12 04:09:18;;;;;;;;;;;;;;;5.86;100.00;-18185.88;4999416;28;20346;-84
2023/02/12 04:11:50;;;;;;;;;;;;;;;5.85;100.00;-18185.47;4992347;28;19925;-85
2023/02/12 04:14:20;;;;;;;;;;;;;;;5.83;100.00;-18184.91;4992921;28;19922;-84
2023/02/12 04:17:04;;;;;;;;;;;;;;;5.83;100.00;-18184.91;4991635;28;19926;-86
2023/02/12 04:19:34;;;;;;;;;;;;;;;5.81;100.00;-18184.38;4992779;28;20580;-84
2023/02/12 04:21:59;;;;;;;;;;;;;;;5.81;100.00;-18184.50;5006039;28;20514;-84
2023/02/12 04:24:36;;;;;;;;;;;;;;;5.81;100.00;-18184.38;4985996;28;19918;-86
2023/02/12 04:27:01;;;;;;;;;;;;;;;5.79;100.00;-18183.81;4973619;28;19974;-83
2023/02/12 04:29:47;;;;;;;;;;;;;;;5.78;100.00;-18183.69;4991744;28;20454;-85
2023/02/12 04:32:18;;;;;;;;;;;;;;;5.79;100.00;-18183.81;4972507;28;19983;-86
2023/02/12 04:34:43;;;;;;;;;;;;;;;5.76;100.00;-18183.00;5006213;28;19976;-84
2023/02/12 04:37:08;;;;;;;;;;;;;;;5.74;100.00;-18182.44;5006392;28;19926;-86
2023/02/12 04:39:36;;;;;;;;;;;;;;;5.74;100.00;-18182.44;5007014;28;19972;-84
2023/02/12 04:42:01;;;;;;;;;;;;;;;5.74;100.00;-18182.56;4975533;28;19973;-84
2023/02/12 04:44:29;;;;;;;;;;;;;;;5.73;100.00;-18182.31;4991181;28;20343;-85
2023/02/12 04:46:54;;;;;;;;;;;;;;;5.73;100.00;-18182.16;4987992;28;20029;-86
2023/02/12 04:49:20;;;;;;;;;;;;;;;5.73;100.00;-18182.16;4991333;28;19984;-84
2023/02/12 04:51:46;;;;;;;;;;;;;;;5.73;100.00;-18182.16;5003885;28;19918;-84
2023/02/12 04:54:12;;;;;;;;;;;;;;;5.72;100.00;-18181.88;4991376;28;19925;-85
2023/02/12 04:56:37;;;;;;;;;;;;;;;5.72;100.00;-18182.03;5003340;28;19944;-85
2023/02/12 04:59:02;;;;;;;;;;;;;;;5.72;100.00;-18182.03;4989065;28;20303;-84
2023/02/12 05:01:28;;;;;;;;;;;;;;;5.72;100.00;-18181.88;4989761;28;20303;-84
2023/02/12 05:03:53;;;;;;;;;;;;;;;5.71;100.00;-18181.63;4988574;28;19934;-85
2023/02/12 05:06:18;;;;;;;;;;;;;;;5.69;100.00;-18181.06;4987901;28;19918;-85
2023/02/12 05:08:43;;;;;;;;;;;;;;;5.67;100.00;-18180.66;4986806;28;19924;-85
2023/02/12 05:11:10;;;;;;;;;;;;;;;5.68;100.00;-18180.91;4990628;28;19918;-84
2023/02/12 05:13:35;;;;;;;;;;;;;;;5.68;100.00;-18180.91;4989721;28;19965;-85
2023/02/12 05:16:04;;;;;;;;;;;;;;;5.69;100.00;-18181.06;4987773;28;19922;-84
2023/02/12 05:18:30;;;;;;;;;;;;;;;5.68;100.00;-18180.78;4985553;28;19924;-85
2023/02/12 05:20:56;;;;;;;;;;;;;;;5.66;100.00;-18180.50;4988833;28;20343;-84
2023/02/12 05:23:21;;;;;;;;;;;;;;;5.66;100.00;-18180.38;4987881;28;20417;-84
2023/02/12 05:25:47;;;;;;;;;;;;;;;5.66;100.00;-18180.38;4996791;28;19925;-84
2023/02/12 05:28:12;;;;;;;;;;;;;;;5.66;100.00;-18180.38;4983817;28;19921;-85
2023/02/12 05:30:37;;;;;;;;;;;;;;;5.64;100.00;-18179.97;4990638;28;19925;-83
2023/02/12 05:33:02;;;;;;;;;;;;;;;5.63;100.00;-18179.69;4978238;28;20005;-86
2023/02/12 05:35:27;;;;;;;;;;;;;;;5.63;100.00;-18179.53;4987098;28;19918;-83
2023/02/12 05:37:53;;;;;;;;;;;;;;;5.62;100.00;-18179.41;4989424;28;19922;-85
2023/02/12 05:40:18;;;;;;;;;;;;;;;5.61;100.00;-18179.00;4990264;28;19922;-85
2023/02/12 05:42:43;;;;;;;;;;;;;;;5.61;100.00;-18179.13;5001769;28;19926;-84
2023/02/12 05:45:08;;;;;;;;;;;;;;;5.61;100.00;-18179.13;4988144;28;19922;-84
2023/02/12 05:47:34;;;;;;;;;;;;;;;5.58;100.00;-18178.31;4988810;28;19928;-84
2023/02/12 05:49:59;;;;;;;;;;;;;;;5.55;100.00;-18177.47;4986930;28;19918;-84
2023/02/12 05:52:24;;;;;;;;;;;;;;;5.54;100.00;-18177.19;5005403;28;20008;-87
2023/02/12 05:54:49;;;;;;;;;;;;;;;5.54;100.00;-18177.06;4987909;28;19965;-86
2023/02/12 05:57:15;;;;;;;;;;;;;;;5.50;100.00;-18176.09;4988281;28;20491;-85
2023/02/12 05:59:40;;;;;;;;;;;;;;;5.50;100.00;-18175.97;4987568;28;19917;-85
2023/02/12 06:02:05;;;;;;;;;;;;;;;5.47;100.00;-18175.13;4987005;28;20008;-84
2023/02/12 06:04:30;;;;;;;;;;;;;;;5.47;100.00;-18175.13;4989746;28;19968;-85
2023/02/12 06:06:56;;;;;;;;;;;;;;;5.48;100.00;-18175.53;4986719;28;20486;-83
2023/02/12 06:09:21;;;;;;;;;;;;;;;5.45;100.00;-18174.72;4988787;28;19925;-85
2023/02/12 06:11:47;;;;;;;;;;;;;;;5.45;100.00;-18174.72;4988020;28;19948;-85
2023/02/12 06:14:16;;;;;;;;;;;;;;;5.43;100.00;-18174.16;4995371;28;19922;-85
2023/02/12 06:16:46;;;;;;;;;;;;;;;5.44;100.00;-18174.44;4985384;28;19917;-85
2023/02/12 06:19:11;;;;;;;;;;;;;;;5.40;100.00;-18173.47;4987676;28;19926;-86
2023/02/12 06:21:37;;;;;;;;;;;;;;;5.40;100.00;-18173.34;4984266;28;19926;-86
2023/02/12 06:24:02;;;;;;;;;;;;;;;5.38;100.00;-18172.91;5002107;28;19922;-85
2023/02/12 06:26:27;;;;;;;;;;;;;;;5.37;100.00;-18172.63;4984458;28;20006;-86
2023/02/12 06:28:52;;;;;;;;;;;;;;;5.36;100.00;-18172.38;4995796;28;19930;-84
2023/02/12 06:31:18;;;;;;;;;;;;;;;5.36;100.00;-18172.22;4988440;28;20016;-85
2023/02/12 06:33:43;;;;;;;;;;;;;;;5.33;100.00;-18171.53;4987018;28;19918;-85
2023/02/12 06:36:08;;;;;;;;;;;;;;;5.32;100.00;-18171.13;4987659;28;19984;-84
2023/02/12 06:38:34;;;;;;;;;;;;;;;5.32;100.00;-18171.13;4986074;28;20007;-85
2023/02/12 06:41:02;;;;;;;;;;;;;;;5.31;100.00;-18170.84;4987601;28;19924;-85
2023/02/12 06:43:28;;;;;;;;;;;;;;;5.30;100.00;-18170.56;4967424;28;19936;-84
2023/02/12 06:45:53;;;;;;;;;;;;;;;5.31;100.00;-18170.84;4974156;28;19926;-87
2023/02/12 06:48:18;;;;;;;;;;;;;;;5.30;100.00;-18170.72;4984832;28;19917;-84
2023/02/12 06:50:43;;;;;;;;;;;;;;;5.32;100.00;-18171.13;4988470;28;19922;-85
2023/02/12 06:53:09;;;;;;;;;;;;;;;5.32;100.00;-18171.13;4987430;28;19957;-86
2023/02/12 06:55:34;;;;;;;;;;;;;;;5.32;100.00;-18171.25;5003134;28;19917;-84
2023/02/12 06:57:59;;;;;;;;;;;;;;;5.34;100.00;-18171.69;4986791;28;19925;-86
2023/02/12 07:00:24;;;;;;;;;;;;;;;5.35;100.00;-18171.94;4987082;28;20384;-87
2023/02/12 07:02:53;;;;;;;;;;;;;;;5.35;100.00;-18171.94;4987860;28;20316;-84
2023/02/12 07:05:19;;;;;;;;;;;;;;;5.36;100.00;-18172.22;4986660;28;20025;-85
2023/02/12 07:07:44;;;;;;;;;;;;;;;5.39;100.00;-18173.19;4984387;28;19965;-85
2023/02/12 07:10:09;;;;;;;;;;;;;;;5.39;100.00;-18173.06;4970701;28;19929;-85
2023/02/12 07:12:35;;;;;;;;;;;;;;;5.40;100.00;-18173.34;4987855;28;19929;-86
2023/02/12 07:15:00;;;;;;;;;;;;;;;5.40;100.00;-18173.47;4983618;28;19922;-86
2023/02/12 07:17:27;;;;;;;;;;;;;;;5.44;100.00;-18174.44;4971110;28;19924;-86
2023/02/12 07:19:53;;;;;;;;;;;;;;;5.43;100.00;-18174.28;4982481;28;19922;-84
2023/02/12 07:22:19;;;;;;;;;;;;;;;5.43;100.00;-18174.16;4985344;28;19926;-83
2023/02/12 07:24:45;;;;;;;;;;;;;;;5.46;100.00;-18174.84;4982381;28;19922;-84
2023/02/12 07:27:10;;;;;;;;;;;;;;;5.45;100.00;-18174.56;4999493;28;20021;-85
2023/02/12 07:29:35;;;;;;;;;;;;;;;5.47;100.00;-18175.13;4988773;28;20391;-84
2023/02/12 07:32:00;;;;;;;;;;;;;;;5.47;100.00;-18175.25;4985963;28;19917;-85
2023/02/12 07:34:26;;;;;;;;;;;;;;;5.49;100.00;-18175.69;4998322;28;19922;-86
2023/02/12 07:36:51;;;;;;;;;;;;;;;5.51;100.00;-18176.22;4989054;28;19922;-84
2023/02/12 07:39:16;;;;;;;;;;;;;;;5.52;100.00;-18176.50;4988352;28;19929;-85
2023/02/12 07:41:41;;;;;;;;;;;;;;;5.53;100.00;-18176.91;4999980;28;19929;-85
2023/02/12 07:44:09;;;;;;;;;;;;;;;5.55;100.00;-18177.34;4990248;28;19988;-86
2023/02/12 07:46:38;;;;;;;;;;;;;;;5.57;100.00;-18177.88;4989276;28;20068;-84
2023/02/12 07:49:05;;;;;;;;;;;;;;;5.58;100.00;-18178.16;4989417;28;20008;-84
2023/02/12 07:51:31;;;;;;;;;;;;;;;5.60;100.00;-18178.84;5004956;28;19929;-85
2023/02/12 07:53:57;;;;;;;;;;;;;;;5.63;100.00;-18179.69;4989064;28;19922;-85
2023/02/12 07:56:23;;;;;;;;;;;;;;;5.64;100.00;-18179.81;4990953;28;20328;-83
2023/02/12 07:58:50;;;;;;;;;;;;;;;5.65;100.00;-18180.09;4983889;28;19918;-83
2023/02/12 08:01:21;;;;;;;;;;;;;;;5.68;100.00;-18180.78;4990683;28;20442;-84
2023/02/12 08:03:47;;;;;;;;;;;;;;;5.69;100.00;-18181.19;4992629;28;19977;-84
2023/02/12 08:06:20;;;;;;;;;;;;;;;5.73;100.00;-18182.16;4991947;28;19988;-85
2023/02/12 08:08:45;;;;;;;;;;;;;;;5.74;100.00;-18182.56;4988584;28;19928;-85
2023/02/12 08:11:12;;;;;;;;;;;;;;;5.77;100.00;-18183.41;4993087;28;19921;-84
2023/02/12 08:13:38;;;;;;;;;;;;;;;5.81;100.00;-18184.38;4988799;28;19924;-84
2023/02/12 08:16:05;;;;;;;;;;;;;;;5.81;100.00;-18184.50;4991069;28;20008;-85
2023/02/12 08:18:31;;;;;;;;;;;;;;;5.85;100.00;-18185.63;4992563;28;19921;-85
2023/02/12 08:21:07;;;;;;;;;;;;;;;5.87;100.00;-18186.16;4991731;28;19925;-86
2023/02/12 08:23:32;;;;;;;;;;;;;;;5.91;100.00;-18187.13;4989583;28;19936;-87
2023/02/12 08:26:25;;;;;;;;;;;;;;;5.93;100.00;-18187.69;4982673;28;20331;-85
2023/02/12 08:29:01;;;;;;;;;;;;;;;5.97;100.00;-18188.78;4972456;28;19982;-85
2023/02/12 08:31:27;;;;;;;;;;;;;;;6.02;100.00;-18190.16;4985363;28;20423;-86
2023/02/12 08:33:53;;;;;;;;;;;;;;;6.03;100.00;-18190.44;5003955;28;19918;-83
2023/02/12 08:36:29;;;;;;;;;;;;;;;6.08;100.00;-18191.81;4981665;28;20310;-87
2023/02/12 08:38:58;;;;;;;;;;;;;;;6.14;100.00;-18193.19;4980788;28;19998;-85
2023/02/12 08:41:24;;;;;;;;;;;;;;;6.15;100.00;-18193.63;4989430;28;19968;-85
2023/02/12 08:43:51;;;;;;;;;;;;;;;6.19;100.00;-18194.72;4986222;28;19932;-83
2023/02/12 08:46:19;;;;;;;;;;;;;;;6.24;100.00;-18195.97;4983377;28;19932;-84
2023/02/12 08:48:44;;;;;;;;;;;;;;;6.26;100.00;-18196.50;4986966;28;19987;-83
2023/02/12 08:51:14;;;;;;;;;;;;;;;6.29;100.00;-18197.47;4986310;28;20572;-84
2023/02/12 08:53:40;;;;;;;;;;;;;;;6.32;100.00;-18198.31;4991051;28;19918;-85
2023/02/12 08:56:06;;;;;;;;;;;;;;;6.37;100.00;-18199.53;4983777;28;20415;-84
2023/02/12 08:58:32;;;;;;;;;;;;;;;6.41;100.00;-18200.66;4987731;28;19930;-86
2023/02/12 09:00:57;;;;;;;;;;;;;;;6.45;100.00;-18201.63;4986955;28;19929;-83
2023/02/12 09:03:22;;;;;;;;;;;;;;;6.47;100.00;-18202.31;4988587;28;19932;-84
2023/02/12 09:05:47;;;;;;;;;;;;;;;6.54;100.00;-18204.22;4973091;28;19922;-84
2023/02/12 09:08:13;;;;;;;;;;;;;;;6.57;100.00;-18204.94;4985662;28;19922;-84
2023/02/12 09:10:39;;;;;;;;;;;;;;;6.59;100.00;-18205.34;4976733;28;19924;-84
2023/02/12 09:13:05;;;;;;;;;;;;;;;6.59;100.00;-18205.34;4984062;28;19918;-83
2023/02/12 09:15:31;;;;;;;;;;;;;;;6.64;100.00;-18206.72;4988345;28;19976;-83
2023/02/12 09:17:56;;;;;;;;;;;;;;;6.67;100.00;-18207.53;4980982;28;19992;-85
2023/02/12 09:20:21;;;;;;;;;;;;;;;6.68;100.00;-18207.81;4984058;28;19925;-85
2023/02/12 09:22:47;;;;;;;;;;;;;;;6.70;100.00;-18208.38;4990418;28;20725;-84
2023/02/12 09:25:12;;;;;;;;;;;;;;;6.74;100.00;-18209.59;4983068;28;19922;-85
2023/02/12 09:27:37;;;;;;;;;;;;;;;6.79;100.00;-18210.84;4990558;28;19926;-85
2023/02/12 09:30:02;;;;;;;;;;;;;;;6.78;100.00;-18210.56;4986380;28;19976;-84
2023/02/12 09:32:28;;;;;;;;;;;;;;;6.79;100.00;-18210.84;4987272;28;19918;-85
2023/02/12 09:34:53;;;;;;;;;;;;;;;6.85;100.00;-18212.50;4967923;28;20011;-85
2023/02/12 09:37:19;;;;;;;;;;;;;;;6.86;100.00;-18212.66;4986619;28;19929;-83
2023/02/12 09:39:44;;;;;;;;;;;;;;;6.89;100.00;-18213.47;4988029;28;19922;-84
2023/02/12 09:42:19;;;;;;;;;;;;;;;6.94;100.00;-18214.84;4984282;28;20467;-84
2023/02/12 09:45:04;;;;;;;;;;;;;;;6.99;100.00;-18216.22;4966212;28;20411;-84
2023/02/12 09:47:42;;;;;;;;;;;;;;;6.98;100.00;-18215.94;4968618;28;20395;-84
2023/02/12 09:50:26;;;;;;;;;;;;;;;6.97;100.00;-18215.81;4985976;28;19921;-83
2023/02/12 09:52:53;;;;;;;;;;;;;;;7.02;100.00;-18217.06;5000768;28;19925;-84
2023/02/12 09:55:18;;;;;;;;;;;;;;;7.04;100.00;-18217.47;4981743;28;20139;-84
2023/02/12 09:57:45;;;;;;;;;;;;;;;7.09;100.00;-18218.84;4987625;28;19929;-83
2023/02/12 10:00:14;;;;;;;;;;;;;;;7.12;100.00;-18219.81;4972624;28;19953;-84
2023/02/12 10:02:40;;;;;;;;;;;;;;;7.15;100.00;-18220.50;4984334;28;20005;-84
2023/02/12 10:05:13;;;;;;;;;;;;;;;7.18;100.00;-18221.47;4983756;28;20033;-85
2023/02/12 10:07:41;;;;;;;;;;;;;;;7.19;100.00;-18221.59;5001912;28;19933;-83
2023/02/12 10:10:20;;;;;;;;;;;;;;;7.19;100.00;-18221.59;5001919;28;19921;-84
2023/02/12 10:13:02;;;;;;;;;;;;;;;7.22;100.00;-18222.44;4981756;28;20009;-84
2023/02/12 10:15:34;;;;;;;;;;;;;;;7.26;100.00;-18223.53;4986950;28;19922;-85
2023/02/12 10:18:17;;;;;;;;;;;;;;;7.28;100.00;-18223.94;4987877;28;19917;-84
2023/02/12 10:21:01;;;;;;;;;;;;;;;7.35;100.00;-18225.88;5001344;28;20230;-84
2023/02/12 10:23:47;;;;;;;;;;;;;;;7.39;100.00;-18227.13;4972687;28;19976;-85
2023/02/12 10:26:17;;;;;;;;;;;;;;;7.47;100.00;-18229.31;4955025;28;19919;-84
2023/02/12 10:28:43;;;;;;;;;;;;;;;7.50;100.00;-18230.00;4984314;28;19926;-85
2023/02/12 10:31:11;;;;;;;;;;;;;;;7.56;100.00;-18231.53;4986094;28;19976;-85
2023/02/12 10:33:40;;;;;;;;;;;;;;;7.54;100.00;-18231.09;4987135;28;20021;-84
2023/02/12 10:36:08;;;;;;;;;;;;;;;7.59;100.00;-18232.34;4986088;28;19925;-85
2023/02/12 10:38:36;;;;;;;;;;;;;;;7.63;100.00;-18233.44;4982335;28;19941;-84
2023/02/12 10:41:01;;;;;;;;;;;;;;;7.65;100.00;-18234.00;4970614;28;20326;-85
2023/02/12 10:43:27;;;;;;;;;;;;;;;7.75;100.00;-18236.63;4987782;28;20012;-85
2023/02/12 10:45:53;;;;;;;;;;;;;;;7.75;100.00;-18236.63;4988344;28;19918;-84
2023/02/12 10:48:23;;;;;;;;;;;;;;;7.74;100.00;-18236.34;4992093;28;19925;-83
2023/02/12 10:50:51;;;;;;;;;;;;;;;7.77;100.00;-18237.31;5013181;28;19918;-83
2023/02/12 10:53:23;;;;;;;;;;;;;;;7.76;100.00;-18237.03;4993333;28;19922;-83
2023/02/12 10:55:49;;;;;;;;;;;;;;;7.78;100.00;-18237.44;4996202;28;19937;-84
2023/02/12 10:58:19;;;;;;;;;;;;;;;7.79;100.00;-18237.84;4989468;28;19943;-83
2023/02/12 11:00:44;;;;;;;;;;;;;;;7.79;100.00;-18237.84;4988133;28;19928;-84
2023/02/12 11:03:09;;;;;;;;;;;;;;;7.83;100.00;-18238.97;4985624;28;19933;-84
2023/02/12 11:05:36;;;;;;;;;;;;;;;7.84;100.00;-18239.22;4987409;28;19918;-83
2023/02/12 11:08:02;;;;;;;;;;;;;;;7.88;100.00;-18240.19;4986593;28;19918;-84
2023/02/12 11:10:27;;;;;;;;;;;;;;;7.91;100.00;-18241.03;5002128;28;19980;-83
2023/02/12 11:12:52;;;;;;;;;;;;;;;7.91;100.00;-18241.03;4986295;28;20154;-83
2023/02/12 11:15:22;;;;;;;;;;;;;;;7.90;100.00;-18240.75;4984133;28;20311;-84
2023/02/12 11:17:55;;;;;;;;;;;;;;;7.95;100.00;-18242.00;4985465;28;20064;-84
2023/02/12 11:20:26;;;;;;;;;;;;;;;7.94;100.00;-18241.72;4967028;28;20560;-84
2023/02/12 11:23:03;;;;;;;;;;;;;;;7.95;100.00;-18242.00;4980839;28;19922;-84
2023/02/12 11:25:30;;;;;;;;;;;;;;;8.02;100.00;-18244.06;4985303;28;19922;-84
2023/02/12 11:27:58;;;;;;;;;;;;;;;8.03;100.00;-18244.31;4986334;28;19962;-84
2023/02/12 11:30:23;;;;;;;;;;;;;;;8.03;100.00;-18244.19;4997848;28;19922;-83
2023/02/12 11:32:50;;;;;;;;;;;;;;;8.14;100.00;-18247.22;4978428;28;20410;-84
2023/02/12 11:35:24;;;;;;;;;;;;;;;8.17;100.00;-18248.03;4983374;28;19925;-84
2023/02/12 11:37:52;;;;;;;;;;;;;;;8.18;100.00;-18248.31;4980624;28;20454;-83
2023/02/12 11:40:22;;;;;;;;;;;;;;;8.18;100.00;-18248.31;4984885;28;19926;-84
2023/02/12 11:42:53;;;;;;;;;;;;;;;8.22;100.00;-18249.41;4982728;28;19929;-83
2023/02/12 11:45:20;;;;;;;;;;;;;;;8.25;100.00;-18250.09;4985836;28;19930;-83
2023/02/12 11:47:46;;;;;;;;;;;;;;;8.32;100.00;-18252.19;4987681;28;19932;-83
2023/02/12 11:50:24;;;;;;;;;;;;;;;8.25;100.00;-18250.09;4986096;28;19918;-85
2023/02/12 11:52:50;;;;;;;;;;;;;;;8.26;100.00;-18250.38;4986900;28;19918;-83
2023/02/12 11:55:23;;;;;;;;;;;;;;;8.28;100.00;-18250.94;4983488;28;19976;-84
2023/02/12 11:57:53;;;;;;;;;;;;;;;8.32;100.00;-18252.19;4984290;28;20008;-83
2023/02/12 12:00:21;;;;;;;;;;;;;;;8.39;100.00;-18253.97;4977700;28;19987;-83
2023/02/12 12:02:56;;;;;;;;;;;;;;;8.39;100.00;-18253.97;4982440;28;20388;-84
2023/02/12 12:05:30;;;;;;;;;;;;;;;8.35;100.00;-18253.00;4965152;28;19922;-84
2023/02/12 12:07:58;;;;;;;;;;;;;;;8.42;100.00;-18254.66;4977691;28;19928;-84
2023/02/12 12:10:36;;;;;;;;;;;;;;;8.44;100.00;-18255.22;4979515;28;19918;-84
2023/02/12 12:13:04;;;;;;;;;;;;;;;8.45;100.00;-18255.63;4981989;28;19918;-85
2023/02/12 12:21:16;;;;;;;;;;;;;;;8.42;100.00;-18254.66;4987852;28;20359;-84
2023/02/12 12:23:57;;;;;;;;;;;;;;;8.39;100.00;-18253.84;4988275;28;19980;-83
2023/02/12 12:26:27;;;;;;;;;;;;;;;8.49;100.00;-18256.59;4985597;28;19924;-84
2023/02/12 12:29:10;;;;;;;;;;;;;;;8.42;100.00;-18254.78;4987691;28;19921;-85
2023/02/12 12:31:37;;;;;;;;;;;;;;;8.49;100.00;-18256.59;4985996;28;19922;-84
2023/02/12 12:34:03;;;;;;;;;;;;;;;8.49;100.00;-18256.59;4986799;28;19956;-84
2023/02/12 12:36:31;;;;;;;;;;;;;;;8.50;100.00;-18257.00;5002677;28;19957;-84
2023/02/12 12:39:17;;;;;;;;;;;;;;;8.47;100.00;-18256.03;4981632;28;19926;-85
2023/02/12 12:41:51;;;;;;;;;;;;;;;8.43;100.00;-18254.94;4982216;28;20429;-83
2023/02/12 12:44:35;;;;;;;;;;;;;;;8.49;100.00;-18256.72;4987599;28;20031;-83
2023/02/12 12:47:09;;;;;;;;;;;;;;;8.49;100.00;-18256.72;4987238;28;19928;-85
2023/02/12 12:49:34;;;;;;;;;;;;;;;8.46;100.00;-18255.75;4984842;28;19918;-84
2023/02/12 12:52:11;;;;;;;;;;;;;;;8.50;100.00;-18257.00;4987319;28;20314;-84